sensor_id;sensor_type;location;lat;lon;timestamp;temperature;humidity
34574;DHT22;20809;49.594;8.734;2022-08-21T00:01:02;15.50;99.90
34574;DHT22;20809;49.594;8.734;2022-08-21T00:04:06;15.50;99.90
34574;DHT22;20809;49.594;8.734;2022-08-21T00:07:07;15.50;99.90
34574;DHT22;20809;49.594;8.734;2022-08-21T00:10:09;15.40;99.90
34574;DHT22;20809;49.594;8.734;2022-08-21T00:13:11;15.30;99.90
34574;DHT22;20809;49.594;8.734;2022-08-21T00:16:12;15.30;99.90
34574;DHT22;20809;49.594;8.734;2022-08-21T00:19:12;15.30;99.90
34574;DHT22;20809;49.594;8.734;2022-08-21T00:22:13;15.30;99.90
34574;DHT22;20809;49.594;8.734;2022-08-21T00:25:15;15.20;99.90
34574;DHT22;20809;49.594;8.734;2022-08-21T00:28:16;15.20;99.90
34574;DHT22;20809;49.594;8.734;2022-08-21T00:31:17;15.20;99.90
34574;DHT22;20809;49.594;8.734;2022-08-21T00:34:18;15.20;99.90
34574;DHT22;20809;49.594;8.734;2022-08-21T00:37:19;15.20;99.90
34574;DHT22;20809;49.594;8.734;2022-08-21T00:40:26;15.10;99.90
34574;DHT22;20809;49.594;8.734;2022-08-21T00:43:30;15.10;99.90
34574;DHT22;20809;49.594;8.734;2022-08-21T00:46:31;15.00;99.90
34574;DHT22;20809;49.594;8.734;2022-08-21T00:49:32;14.90;99.90
34574;DHT22;20809;49.594;8.734;2022-08-21T00:52:34;14.90;99.90
34574;DHT22;20809;49.594;8.734;2022-08-21T00:59:10;14.90;99.90
34574;DHT22;20809;49.594;8.734;2022-08-21T01:02:12;14.90;99.90
34574;DHT22;20809;49.594;8.734;2022-08-21T01:05:14;14.80;99.90
34574;DHT22;20809;49.594;8.734;2022-08-21T01:08:16;14.80;99.90
34574;DHT22;20809;49.594;8.734;2022-08-21T01:11:17;14.70;99.90
34574;DHT22;20809;49.594;8.734;2022-08-21T01:14:18;14.70;99.90
34574;DHT22;20809;49.594;8.734;2022-08-21T01:17:21;14.70;99.90
34574;DHT22;20809;49.594;8.734;2022-08-21T01:20:22;14.60;99.90
34574;DHT22;20809;49.594;8.734;2022-08-21T01:23:23;14.60;99.90
34574;DHT22;20809;49.594;8.734;2022-08-21T01:26:32;14.60;99.90
34574;DHT22;20809;49.594;8.734;2022-08-21T01:32:55;14.60;99.90
34574;DHT22;20809;49.594;8.734;2022-08-21T01:35:56;14.50;99.90
34574;DHT22;20809;49.594;8.734;2022-08-21T01:38:56;14.40;99.90
34574;DHT22;20809;49.594;8.734;2022-08-21T01:41:57;14.40;99.90
34574;DHT22;20809;49.594;8.734;2022-08-21T01:44:58;14.30;99.90
34574;DHT22;20809;49.594;8.734;2022-08-21T01:47:59;14.30;99.90
34574;DHT22;20809;49.594;8.734;2022-08-21T01:51:07;14.20;99.90
34574;DHT22;20809;49.594;8.734;2022-08-21T01:54:17;14.20;99.90
34574;DHT22;20809;49.594;8.734;2022-08-21T01:57:18;14.10;99.90
34574;DHT22;20809;49.594;8.734;2022-08-21T02:00:21;14.10;99.90
34574;DHT22;20809;49.594;8.734;2022-08-21T02:03:23;14.10;99.90
34574;DHT22;20809;49.594;8.734;2022-08-21T02:06:23;14.00;99.90
34574;DHT22;20809;49.594;8.734;2022-08-21T02:09:25;14.00;99.90
34574;DHT22;20809;49.594;8.734;2022-08-21T02:12:25;14.00;99.90
34574;DHT22;20809;49.594;8.734;2022-08-21T02:15:28;14.00;99.90
34574;DHT22;20809;49.594;8.734;2022-08-21T02:18:29;14.00;99.90
34574;DHT22;20809;49.594;8.734;2022-08-21T02:21:31;13.90;99.90
34574;DHT22;20809;49.594;8.734;2022-08-21T02:24:31;13.80;99.90
34574;DHT22;20809;49.594;8.734;2022-08-21T02:27:41;13.80;99.90
34574;DHT22;20809;49.594;8.734;2022-08-21T02:30:46;13.70;99.90
34574;DHT22;20809;49.594;8.734;2022-08-21T02:33:47;13.70;99.90
34574;DHT22;20809;49.594;8.734;2022-08-21T02:36:48;13.70;99.90
34574;DHT22;20809;49.594;8.734;2022-08-21T02:39:49;13.70;99.90
34574;DHT22;20809;49.594;8.734;2022-08-21T02:42:50;13.60;99.90
34574;DHT22;20809;49.594;8.734;2022-08-21T02:45:52;13.50;99.90
34574;DHT22;20809;49.594;8.734;2022-08-21T02:48:52;13.50;99.90
34574;DHT22;20809;49.594;8.734;2022-08-21T02:51:53;13.50;99.90
34574;DHT22;20809;49.594;8.734;2022-08-21T02:54:54;13.50;99.90
34574;DHT22;20809;49.594;8.734;2022-08-21T02:57:56;13.50;99.90
34574;DHT22;20809;49.594;8.734;2022-08-21T03:00:57;13.50;99.90
34574;DHT22;20809;49.594;8.734;2022-08-21T03:04:01;13.50;99.90
34574;DHT22;20809;49.594;8.734;2022-08-21T03:07:01;13.50;99.90
34574;DHT22;20809;49.594;8.734;2022-08-21T03:10:03;13.50;99.90
34574;DHT22;20809;49.594;8.734;2022-08-21T03:13:04;13.50;99.90
34574;DHT22;20809;49.594;8.734;2022-08-21T03:16:06;13.40;99.90
34574;DHT22;20809;49.594;8.734;2022-08-21T03:19:06;13.40;99.90
34574;DHT22;20809;49.594;8.734;2022-08-21T03:22:07;13.30;99.90
34574;DHT22;20809;49.594;8.734;2022-08-21T03:25:09;13.30;99.90
34574;DHT22;20809;49.594;8.734;2022-08-21T03:28:14;13.30;99.90
34574;DHT22;20809;49.594;8.734;2022-08-21T03:31:15;13.30;99.90
34574;DHT22;20809;49.594;8.734;2022-08-21T03:34:16;13.30;99.90
34574;DHT22;20809;49.594;8.734;2022-08-21T03:37:17;13.30;99.90
34574;DHT22;20809;49.594;8.734;2022-08-21T03:40:19;13.20;99.90
34574;DHT22;20809;49.594;8.734;2022-08-21T03:43:21;13.20;99.90
34574;DHT22;20809;49.594;8.734;2022-08-21T03:46:21;13.20;99.90
34574;DHT22;20809;49.594;8.734;2022-08-21T03:49:23;13.10;99.90
34574;DHT22;20809;49.594;8.734;2022-08-21T03:52:23;13.10;99.90
34574;DHT22;20809;49.594;8.734;2022-08-21T03:55:26;13.10;99.90
34574;DHT22;20809;49.594;8.734;2022-08-21T03:58:29;13.10;99.90
34574;DHT22;20809;49.594;8.734;2022-08-21T04:01:30;13.00;99.90
34574;DHT22;20809;49.594;8.734;2022-08-21T04:04:32;13.00;99.90
34574;DHT22;20809;49.594;8.734;2022-08-21T04:07:34;12.90;99.90
34574;DHT22;20809;49.594;8.734;2022-08-21T04:10:43;12.80;99.90
34574;DHT22;20809;49.594;8.734;2022-08-21T04:13:45;12.80;99.90
34574;DHT22;20809;49.594;8.734;2022-08-21T04:16:46;12.80;99.90
34574;DHT22;20809;49.594;8.734;2022-08-21T04:19:48;12.70;99.90
34574;DHT22;20809;49.594;8.734;2022-08-21T04:22:50;12.70;99.90
34574;DHT22;20809;49.594;8.734;2022-08-21T04:25:53;12.80;99.90
34574;DHT22;20809;49.594;8.734;2022-08-21T04:28:56;12.70;99.90
34574;DHT22;20809;49.594;8.734;2022-08-21T04:32:00;12.70;99.90
34574;DHT22;20809;49.594;8.734;2022-08-21T04:35:06;12.70;99.90
34574;DHT22;20809;49.594;8.734;2022-08-21T04:38:07;12.60;99.90
34574;DHT22;20809;49.594;8.734;2022-08-21T04:41:07;12.60;99.90
34574;DHT22;20809;49.594;8.734;2022-08-21T04:44:20;12.70;99.90
34574;DHT22;20809;49.594;8.734;2022-08-21T04:47:24;12.70;99.90
34574;DHT22;20809;49.594;8.734;2022-08-21T04:50:37;12.70;99.90
34574;DHT22;20809;49.594;8.734;2022-08-21T04:54:06;12.80;99.90
34574;DHT22;20809;49.594;8.734;2022-08-21T04:57:09;12.90;99.90
34574;DHT22;20809;49.594;8.734;2022-08-21T05:00:12;12.90;99.90
34574;DHT22;20809;49.594;8.734;2022-08-21T05:03:15;13.00;99.90
34574;DHT22;20809;49.594;8.734;2022-08-21T05:06:17;13.00;99.90
34574;DHT22;20809;49.594;8.734;2022-08-21T05:09:18;13.10;99.90
34574;DHT22;20809;49.594;8.734;2022-08-21T05:12:20;13.10;99.90
34574;DHT22;20809;49.594;8.734;2022-08-21T05:15:21;13.20;99.90
34574;DHT22;20809;49.594;8.734;2022-08-21T05:18:25;13.30;99.90
34574;DHT22;20809;49.594;8.734;2022-08-21T05:21:25;13.30;99.90
34574;DHT22;20809;49.594;8.734;2022-08-21T05:24:29;13.30;99.90
34574;DHT22;20809;49.594;8.734;2022-08-21T05:27:43;13.40;99.90
34574;DHT22;20809;49.594;8.734;2022-08-21T05:30:50;13.40;99.90
34574;DHT22;20809;49.594;8.734;2022-08-21T05:33:52;13.50;99.90
34574;DHT22;20809;49.594;8.734;2022-08-21T05:36:55;13.50;99.90
34574;DHT22;20809;49.594;8.734;2022-08-21T05:39:58;13.60;99.90
34574;DHT22;20809;49.594;8.734;2022-08-21T05:43:00;13.80;99.90
34574;DHT22;20809;49.594;8.734;2022-08-21T05:46:08;14.00;99.90
34574;DHT22;20809;49.594;8.734;2022-08-21T05:49:11;14.20;99.90
34574;DHT22;20809;49.594;8.734;2022-08-21T05:52:23;14.40;99.90
34574;DHT22;20809;49.594;8.734;2022-08-21T05:55:25;14.90;99.90
34574;DHT22;20809;49.594;8.734;2022-08-21T05:58:29;15.40;99.90
34574;DHT22;20809;49.594;8.734;2022-08-21T06:01:30;16.30;99.90
34574;DHT22;20809;49.594;8.734;2022-08-21T06:04:35;17.70;99.90
34574;DHT22;20809;49.594;8.734;2022-08-21T06:07:36;18.80;99.90
34574;DHT22;20809;49.594;8.734;2022-08-21T06:10:37;19.20;99.90
34574;DHT22;20809;49.594;8.734;2022-08-21T06:13:38;19.90;99.90
34574;DHT22;20809;49.594;8.734;2022-08-21T06:16:39;20.40;99.90
34574;DHT22;20809;49.594;8.734;2022-08-21T06:19:40;20.70;99.90
34574;DHT22;20809;49.594;8.734;2022-08-21T06:22:41;20.90;99.90
34574;DHT22;20809;49.594;8.734;2022-08-21T06:25:41;21.30;99.90
34574;DHT22;20809;49.594;8.734;2022-08-21T06:28:43;22.40;99.90
34574;DHT22;20809;49.594;8.734;2022-08-21T06:31:45;23.50;99.90
34574;DHT22;20809;49.594;8.734;2022-08-21T06:34:54;23.60;99.90
34574;DHT22;20809;49.594;8.734;2022-08-21T06:38:00;23.20;99.90
34574;DHT22;20809;49.594;8.734;2022-08-21T06:41:01;22.70;99.90
34574;DHT22;20809;49.594;8.734;2022-08-21T06:44:02;22.30;99.90
34574;DHT22;20809;49.594;8.734;2022-08-21T06:47:03;22.10;99.90
34574;DHT22;20809;49.594;8.734;2022-08-21T06:50:05;22.00;99.90
34574;DHT22;20809;49.594;8.734;2022-08-21T06:53:12;21.80;99.90
34574;DHT22;20809;49.594;8.734;2022-08-21T06:56:13;21.70;99.90
34574;DHT22;20809;49.594;8.734;2022-08-21T06:59:13;21.60;99.90
34574;DHT22;20809;49.594;8.734;2022-08-21T07:02:14;21.60;99.90
34574;DHT22;20809;49.594;8.734;2022-08-21T07:05:15;21.70;99.90
34574;DHT22;20809;49.594;8.734;2022-08-21T07:08:16;21.90;99.90
34574;DHT22;20809;49.594;8.734;2022-08-21T07:11:22;22.00;99.90
34574;DHT22;20809;49.594;8.734;2022-08-21T07:14:23;22.00;99.90
34574;DHT22;20809;49.594;8.734;2022-08-21T07:17:24;22.20;99.90
34574;DHT22;20809;49.594;8.734;2022-08-21T07:20:26;22.40;99.90
34574;DHT22;20809;49.594;8.734;2022-08-21T07:23:45;22.40;99.90
34574;DHT22;20809;49.594;8.734;2022-08-21T07:26:46;22.40;99.90
34574;DHT22;20809;49.594;8.734;2022-08-21T07:29:47;22.30;99.90
34574;DHT22;20809;49.594;8.734;2022-08-21T07:32:48;22.30;99.90
34574;DHT22;20809;49.594;8.734;2022-08-21T07:35:49;22.30;99.90
34574;DHT22;20809;49.594;8.734;2022-08-21T07:38:50;22.30;99.90
34574;DHT22;20809;49.594;8.734;2022-08-21T07:41:51;22.30;99.90
34574;DHT22;20809;49.594;8.734;2022-08-21T07:44:52;22.40;99.90
34574;DHT22;20809;49.594;8.734;2022-08-21T07:47:53;22.50;99.90
34574;DHT22;20809;49.594;8.734;2022-08-21T07:50:53;22.60;99.90
34574;DHT22;20809;49.594;8.734;2022-08-21T07:53:57;22.80;99.90
34574;DHT22;20809;49.594;8.734;2022-08-21T07:56:58;22.90;99.90
34574;DHT22;20809;49.594;8.734;2022-08-21T07:59:59;23.10;99.90
34574;DHT22;20809;49.594;8.734;2022-08-21T08:03:01;23.20;99.90
34574;DHT22;20809;49.594;8.734;2022-08-21T08:06:03;23.40;99.90
34574;DHT22;20809;49.594;8.734;2022-08-21T08:09:05;23.50;99.90
34574;DHT22;20809;49.594;8.734;2022-08-21T08:12:06;23.60;99.90
34574;DHT22;20809;49.594;8.734;2022-08-21T08:15:10;23.80;99.90
34574;DHT22;20809;49.594;8.734;2022-08-21T08:18:11;23.90;99.90
34574;DHT22;20809;49.594;8.734;2022-08-21T08:21:13;24.00;99.90
34574;DHT22;20809;49.594;8.734;2022-08-21T08:24:14;24.20;99.90
34574;DHT22;20809;49.594;8.734;2022-08-21T08:27:15;24.40;99.90
34574;DHT22;20809;49.594;8.734;2022-08-21T08:30:18;24.60;99.90
34574;DHT22;20809;49.594;8.734;2022-08-21T08:33:19;24.70;99.90
34574;DHT22;20809;49.594;8.734;2022-08-21T08:36:20;24.80;99.90
34574;DHT22;20809;49.594;8.734;2022-08-21T08:39:33;25.00;99.90
34574;DHT22;20809;49.594;8.734;2022-08-21T08:42:35;25.20;99.90
34574;DHT22;20809;49.594;8.734;2022-08-21T08:45:44;25.40;99.90
34574;DHT22;20809;49.594;8.734;2022-08-21T08:48:54;25.60;99.90
34574;DHT22;20809;49.594;8.734;2022-08-21T08:52:00;25.70;99.90
34574;DHT22;20809;49.594;8.734;2022-08-21T08:55:06;25.90;99.90
34574;DHT22;20809;49.594;8.734;2022-08-21T08:58:20;26.00;99.90
34574;DHT22;20809;49.594;8.734;2022-08-21T09:01:23;26.10;99.90
34574;DHT22;20809;49.594;8.734;2022-08-21T09:04:26;26.20;99.90
34574;DHT22;20809;49.594;8.734;2022-08-21T09:10:57;26.30;99.90
34574;DHT22;20809;49.594;8.734;2022-08-21T09:17:34;26.50;99.90
34574;DHT22;20809;49.594;8.734;2022-08-21T09:20:58;26.60;99.90
34574;DHT22;20809;49.594;8.734;2022-08-21T09:27:21;26.90;99.90
34574;DHT22;20809;49.594;8.734;2022-08-21T09:30:32;26.80;99.90
34574;DHT22;20809;49.594;8.734;2022-08-21T09:33:36;26.70;99.90
34574;DHT22;20809;49.594;8.734;2022-08-21T09:36:41;26.80;99.90
34574;DHT22;20809;49.594;8.734;2022-08-21T09:39:43;26.80;99.90
34574;DHT22;20809;49.594;8.734;2022-08-21T09:42:56;26.80;99.90
34574;DHT22;20809;49.594;8.734;2022-08-21T09:46:24;27.00;99.90
34574;DHT22;20809;49.594;8.734;2022-08-21T09:49:37;26.90;98.90
34574;DHT22;20809;49.594;8.734;2022-08-21T09:52:57;27.00;97.20
34574;DHT22;20809;49.594;8.734;2022-08-21T09:56:04;27.10;96.70
34574;DHT22;20809;49.594;8.734;2022-08-21T09:59:30;27.30;96.30
34574;DHT22;20809;49.594;8.734;2022-08-21T10:02:34;27.40;94.80
34574;DHT22;20809;49.594;8.734;2022-08-21T10:05:35;27.40;94.60
34574;DHT22;20809;49.594;8.734;2022-08-21T10:08:39;27.20;94.00
34574;DHT22;20809;49.594;8.734;2022-08-21T10:11:45;26.90;94.60
34574;DHT22;20809;49.594;8.734;2022-08-21T10:15:10;26.80;94.30
34574;DHT22;20809;49.594;8.734;2022-08-21T10:18:29;26.90;93.50
34574;DHT22;20809;49.594;8.734;2022-08-21T10:25:21;27.50;92.10
34574;DHT22;20809;49.594;8.734;2022-08-21T10:32:57;27.90;91.30
34574;DHT22;20809;49.594;8.734;2022-08-21T10:35:33;27.80;91.40
34574;DHT22;20809;49.594;8.734;2022-08-21T10:38:55;27.50;91.10
34574;DHT22;20809;49.594;8.734;2022-08-21T10:48:55;26.30;91.60
34574;DHT22;20809;49.594;8.734;2022-08-21T10:55:23;26.50;92.40
34574;DHT22;20809;49.594;8.734;2022-08-21T10:58:36;26.70;91.90
34574;DHT22;20809;49.594;8.734;2022-08-21T11:05:13;26.90;92.00
34574;DHT22;20809;49.594;8.734;2022-08-21T11:08:23;27.30;90.70
34574;DHT22;20809;49.594;8.734;2022-08-21T11:11:29;27.30;90.30
34574;DHT22;20809;49.594;8.734;2022-08-21T11:14:56;27.30;90.70
34574;DHT22;20809;49.594;8.734;2022-08-21T11:24:54;27.50;89.00
34574;DHT22;20809;49.594;8.734;2022-08-21T11:31:38;27.20;88.70
34574;DHT22;20809;49.594;8.734;2022-08-21T11:41:25;27.50;88.20
34574;DHT22;20809;49.594;8.734;2022-08-21T11:45:26;27.80;87.40
34574;DHT22;20809;49.594;8.734;2022-08-21T11:51:18;28.20;83.30
34574;DHT22;20809;49.594;8.734;2022-08-21T11:54:28;28.30;85.30
34574;DHT22;20809;49.594;8.734;2022-08-21T12:00:44;29.00;79.10
34574;DHT22;20809;49.594;8.734;2022-08-21T12:04:00;29.20;75.90
34574;DHT22;20809;49.594;8.734;2022-08-21T12:10:39;29.10;77.20
34574;DHT22;20809;49.594;8.734;2022-08-21T12:17:05;29.50;73.00
34574;DHT22;20809;49.594;8.734;2022-08-21T12:20:22;29.60;73.70
34574;DHT22;20809;49.594;8.734;2022-08-21T12:23:33;29.60;73.60
34574;DHT22;20809;49.594;8.734;2022-08-21T12:26:54;29.70;73.90
34574;DHT22;20809;49.594;8.734;2022-08-21T12:29:59;29.80;74.80
34574;DHT22;20809;49.594;8.734;2022-08-21T12:33:04;29.90;73.60
34574;DHT22;20809;49.594;8.734;2022-08-21T12:36:15;30.00;73.20
34574;DHT22;20809;49.594;8.734;2022-08-21T12:39:26;30.30;72.60
34574;DHT22;20809;49.594;8.734;2022-08-21T12:42:40;30.50;68.40
34574;DHT22;20809;49.594;8.734;2022-08-21T12:45:49;30.20;70.10
34574;DHT22;20809;49.594;8.734;2022-08-21T12:48:56;30.30;68.40
34574;DHT22;20809;49.594;8.734;2022-08-21T12:55:31;30.60;66.10
34574;DHT22;20809;49.594;8.734;2022-08-21T12:58:35;30.40;66.50
34574;DHT22;20809;49.594;8.734;2022-08-21T13:01:38;30.50;66.90
34574;DHT22;20809;49.594;8.734;2022-08-21T13:04:41;30.70;65.60
34574;DHT22;20809;49.594;8.734;2022-08-21T13:07:54;31.00;64.50
34574;DHT22;20809;49.594;8.734;2022-08-21T13:11:08;31.00;62.00
34574;DHT22;20809;49.594;8.734;2022-08-21T13:17:39;31.00;59.40
34574;DHT22;20809;49.594;8.734;2022-08-21T13:20:41;30.90;58.20
34574;DHT22;20809;49.594;8.734;2022-08-21T13:23:42;30.70;58.20
34574;DHT22;20809;49.594;8.734;2022-08-21T13:26:44;30.60;59.50
34574;DHT22;20809;49.594;8.734;2022-08-21T13:29:45;30.30;61.90
34574;DHT22;20809;49.594;8.734;2022-08-21T13:32:54;30.60;61.60
34574;DHT22;20809;49.594;8.734;2022-08-21T13:38:57;31.20;61.40
34574;DHT22;20809;49.594;8.734;2022-08-21T13:42:00;31.40;60.10
34574;DHT22;20809;49.594;8.734;2022-08-21T13:45:01;31.20;60.30
34574;DHT22;20809;49.594;8.734;2022-08-21T13:48:03;30.80;61.30
34574;DHT22;20809;49.594;8.734;2022-08-21T13:51:06;30.70;60.80
34574;DHT22;20809;49.594;8.734;2022-08-21T13:54:26;30.80;59.80
34574;DHT22;20809;49.594;8.734;2022-08-21T13:57:33;30.50;58.90
34574;DHT22;20809;49.594;8.734;2022-08-21T14:00:47;30.20;60.20
34574;DHT22;20809;49.594;8.734;2022-08-21T14:03:51;30.10;59.80
34574;DHT22;20809;49.594;8.734;2022-08-21T14:06:52;30.10;60.30
34574;DHT22;20809;49.594;8.734;2022-08-21T14:09:54;29.80;61.10
34574;DHT22;20809;49.594;8.734;2022-08-21T14:12:59;30.00;61.10
34574;DHT22;20809;49.594;8.734;2022-08-21T14:16:02;30.40;61.20
34574;DHT22;20809;49.594;8.734;2022-08-21T14:25:44;31.30;58.50
34574;DHT22;20809;49.594;8.734;2022-08-21T14:28:45;31.30;58.00
34574;DHT22;20809;49.594;8.734;2022-08-21T14:31:55;31.40;57.40
34574;DHT22;20809;49.594;8.734;2022-08-21T14:34:56;30.90;57.10
34574;DHT22;20809;49.594;8.734;2022-08-21T14:37:57;30.80;57.90
34574;DHT22;20809;49.594;8.734;2022-08-21T14:41:10;30.70;56.20
34574;DHT22;20809;49.594;8.734;2022-08-21T14:44:17;30.50;56.30
34574;DHT22;20809;49.594;8.734;2022-08-21T14:47:19;30.30;56.70
34574;DHT22;20809;49.594;8.734;2022-08-21T14:50:19;29.60;57.50
34574;DHT22;20809;49.594;8.734;2022-08-21T14:53:20;29.50;57.80
34574;DHT22;20809;49.594;8.734;2022-08-21T14:56:21;29.80;58.10
34574;DHT22;20809;49.594;8.734;2022-08-21T14:59:25;30.10;57.40
34574;DHT22;20809;49.594;8.734;2022-08-21T15:02:29;30.40;57.20
34574;DHT22;20809;49.594;8.734;2022-08-21T15:05:30;30.20;56.60
34574;DHT22;20809;49.594;8.734;2022-08-21T15:08:31;30.30;58.10
34574;DHT22;20809;49.594;8.734;2022-08-21T15:11:33;30.60;57.60
34574;DHT22;20809;49.594;8.734;2022-08-21T15:14:36;30.80;55.80
34574;DHT22;20809;49.594;8.734;2022-08-21T15:17:38;30.80;56.30
34574;DHT22;20809;49.594;8.734;2022-08-21T15:20:39;30.80;56.80
34574;DHT22;20809;49.594;8.734;2022-08-21T15:23:40;31.00;57.00
34574;DHT22;20809;49.594;8.734;2022-08-21T15:26:41;31.20;56.80
34574;DHT22;20809;49.594;8.734;2022-08-21T15:29:43;31.30;57.50
34574;DHT22;20809;49.594;8.734;2022-08-21T15:32:43;31.50;55.90
34574;DHT22;20809;49.594;8.734;2022-08-21T15:35:45;31.60;56.70
34574;DHT22;20809;49.594;8.734;2022-08-21T15:38:46;31.50;56.50
34574;DHT22;20809;49.594;8.734;2022-08-21T15:41:48;31.30;56.70
34574;DHT22;20809;49.594;8.734;2022-08-21T15:44:49;31.10;56.60
34574;DHT22;20809;49.594;8.734;2022-08-21T15:47:50;30.80;57.00
34574;DHT22;20809;49.594;8.734;2022-08-21T15:50:51;30.50;56.80
34574;DHT22;20809;49.594;8.734;2022-08-21T15:53:52;30.30;57.70
34574;DHT22;20809;49.594;8.734;2022-08-21T15:56:53;30.30;58.00
34574;DHT22;20809;49.594;8.734;2022-08-21T15:59:57;30.20;58.20
34574;DHT22;20809;49.594;8.734;2022-08-21T16:03:00;30.20;58.90
34574;DHT22;20809;49.594;8.734;2022-08-21T16:06:03;30.20;58.70
34574;DHT22;20809;49.594;8.734;2022-08-21T16:09:04;30.00;58.70
34574;DHT22;20809;49.594;8.734;2022-08-21T16:12:05;30.00;59.00
34574;DHT22;20809;49.594;8.734;2022-08-21T16:15:09;30.10;59.50
34574;DHT22;20809;49.594;8.734;2022-08-21T16:18:10;30.20;58.90
34574;DHT22;20809;49.594;8.734;2022-08-21T16:21:15;30.40;59.00
34574;DHT22;20809;49.594;8.734;2022-08-21T16:24:16;30.50;59.10
34574;DHT22;20809;49.594;8.734;2022-08-21T16:27:17;30.80;58.40
34574;DHT22;20809;49.594;8.734;2022-08-21T16:30:19;31.00;58.00
34574;DHT22;20809;49.594;8.734;2022-08-21T16:33:33;31.10;57.70
34574;DHT22;20809;49.594;8.734;2022-08-21T16:36:34;31.30;57.00
34574;DHT22;20809;49.594;8.734;2022-08-21T16:39:35;31.40;57.10
34574;DHT22;20809;49.594;8.734;2022-08-21T16:42:37;31.60;56.40
34574;DHT22;20809;49.594;8.734;2022-08-21T16:45:38;31.60;56.20
34574;DHT22;20809;49.594;8.734;2022-08-21T16:48:42;31.70;55.00
34574;DHT22;20809;49.594;8.734;2022-08-21T16:51:44;31.40;54.80
34574;DHT22;20809;49.594;8.734;2022-08-21T16:54:45;31.40;55.80
34574;DHT22;20809;49.594;8.734;2022-08-21T16:57:46;31.60;55.00
34574;DHT22;20809;49.594;8.734;2022-08-21T17:00:46;31.80;54.50
34574;DHT22;20809;49.594;8.734;2022-08-21T17:03:47;31.90;54.60
34574;DHT22;20809;49.594;8.734;2022-08-21T17:06:50;32.00;54.50
34574;DHT22;20809;49.594;8.734;2022-08-21T17:09:52;31.20;55.20
34574;DHT22;20809;49.594;8.734;2022-08-21T17:12:54;30.60;55.80
34574;DHT22;20809;49.594;8.734;2022-08-21T17:15:56;30.00;56.50
34574;DHT22;20809;49.594;8.734;2022-08-21T17:18:57;29.60;57.20
34574;DHT22;20809;49.594;8.734;2022-08-21T17:21:58;29.00;58.90
34574;DHT22;20809;49.594;8.734;2022-08-21T17:24:58;28.40;59.10
34574;DHT22;20809;49.594;8.734;2022-08-21T17:27:59;27.90;59.80
34574;DHT22;20809;49.594;8.734;2022-08-21T17:31:00;27.30;60.90
34574;DHT22;20809;49.594;8.734;2022-08-21T17:34:02;27.00;62.40
34574;DHT22;20809;49.594;8.734;2022-08-21T17:37:03;26.60;63.30
34574;DHT22;20809;49.594;8.734;2022-08-21T17:40:06;26.40;64.10
34574;DHT22;20809;49.594;8.734;2022-08-21T17:43:11;26.20;65.10
34574;DHT22;20809;49.594;8.734;2022-08-21T17:46:18;25.90;66.80
34574;DHT22;20809;49.594;8.734;2022-08-21T17:49:19;25.60;67.00
34574;DHT22;20809;49.594;8.734;2022-08-21T17:52:21;25.40;68.30
34574;DHT22;20809;49.594;8.734;2022-08-21T17:55:22;25.20;69.10
34574;DHT22;20809;49.594;8.734;2022-08-21T17:58:23;25.10;70.50
34574;DHT22;20809;49.594;8.734;2022-08-21T18:01:25;24.90;71.50
34574;DHT22;20809;49.594;8.734;2022-08-21T18:04:29;24.70;71.00
34574;DHT22;20809;49.594;8.734;2022-08-21T18:07:30;24.50;70.90
34574;DHT22;20809;49.594;8.734;2022-08-21T18:10:31;24.30;72.00
34574;DHT22;20809;49.594;8.734;2022-08-21T18:13:35;24.20;72.10
34574;DHT22;20809;49.594;8.734;2022-08-21T18:16:36;24.00;72.30
34574;DHT22;20809;49.594;8.734;2022-08-21T18:19:37;23.90;73.40
34574;DHT22;20809;49.594;8.734;2022-08-21T18:22:39;23.80;74.50
34574;DHT22;20809;49.594;8.734;2022-08-21T18:25:47;23.60;75.20
34574;DHT22;20809;49.594;8.734;2022-08-21T18:28:48;23.40;76.20
34574;DHT22;20809;49.594;8.734;2022-08-21T18:31:49;23.20;77.50
34574;DHT22;20809;49.594;8.734;2022-08-21T18:34:53;23.10;76.70
34574;DHT22;20809;49.594;8.734;2022-08-21T18:37:55;23.00;77.50
34574;DHT22;20809;49.594;8.734;2022-08-21T18:40:56;22.90;77.90
34574;DHT22;20809;49.594;8.734;2022-08-21T18:43:58;22.70;79.00
34574;DHT22;20809;49.594;8.734;2022-08-21T18:47:04;22.50;80.80
34574;DHT22;20809;49.594;8.734;2022-08-21T18:50:06;22.30;82.50
34574;DHT22;20809;49.594;8.734;2022-08-21T18:53:07;22.10;83.30
34574;DHT22;20809;49.594;8.734;2022-08-21T18:56:08;21.90;83.00
34574;DHT22;20809;49.594;8.734;2022-08-21T18:59:09;21.90;83.50
34574;DHT22;20809;49.594;8.734;2022-08-21T19:02:10;21.80;84.00
34574;DHT22;20809;49.594;8.734;2022-08-21T19:05:13;21.60;84.80
34574;DHT22;20809;49.594;8.734;2022-08-21T19:08:17;21.50;84.80
34574;DHT22;20809;49.594;8.734;2022-08-21T19:11:18;21.50;84.60
34574;DHT22;20809;49.594;8.734;2022-08-21T19:14:19;21.40;84.70
34574;DHT22;20809;49.594;8.734;2022-08-21T19:17:21;21.30;85.40
34574;DHT22;20809;49.594;8.734;2022-08-21T19:20:30;21.20;86.20
34574;DHT22;20809;49.594;8.734;2022-08-21T19:23:34;20.90;87.10
34574;DHT22;20809;49.594;8.734;2022-08-21T19:26:35;20.80;87.90
34574;DHT22;20809;49.594;8.734;2022-08-21T19:29:37;20.70;88.30
34574;DHT22;20809;49.594;8.734;2022-08-21T19:32:41;20.60;90.20
34574;DHT22;20809;49.594;8.734;2022-08-21T19:35:43;20.50;90.10
34574;DHT22;20809;49.594;8.734;2022-08-21T19:38:44;20.50;89.70
34574;DHT22;20809;49.594;8.734;2022-08-21T19:41:48;20.40;89.50
34574;DHT22;20809;49.594;8.734;2022-08-21T19:44:51;20.40;90.20
34574;DHT22;20809;49.594;8.734;2022-08-21T19:47:52;20.30;90.60
34574;DHT22;20809;49.594;8.734;2022-08-21T19:50:53;20.10;90.50
34574;DHT22;20809;49.594;8.734;2022-08-21T19:53:55;20.00;90.70
34574;DHT22;20809;49.594;8.734;2022-08-21T19:56:57;19.90;90.80
34574;DHT22;20809;49.594;8.734;2022-08-21T19:59:58;19.90;90.90
34574;DHT22;20809;49.594;8.734;2022-08-21T20:02:58;19.80;90.90
34574;DHT22;20809;49.594;8.734;2022-08-21T20:05:59;19.80;91.50
34574;DHT22;20809;49.594;8.734;2022-08-21T20:09:00;19.60;91.60
34574;DHT22;20809;49.594;8.734;2022-08-21T20:12:03;19.60;91.70
34574;DHT22;20809;49.594;8.734;2022-08-21T20:15:05;19.50;92.40
34574;DHT22;20809;49.594;8.734;2022-08-21T20:18:05;19.40;92.90
34574;DHT22;20809;49.594;8.734;2022-08-21T20:21:07;19.30;93.20
34574;DHT22;20809;49.594;8.734;2022-08-21T20:24:11;19.20;93.50
34574;DHT22;20809;49.594;8.734;2022-08-21T20:27:18;19.20;93.60
34574;DHT22;20809;49.594;8.734;2022-08-21T20:30:19;19.10;93.90
34574;DHT22;20809;49.594;8.734;2022-08-21T20:33:20;19.10;94.10
34574;DHT22;20809;49.594;8.734;2022-08-21T20:36:21;18.90;94.80
34574;DHT22;20809;49.594;8.734;2022-08-21T20:39:22;18.80;94.20
34574;DHT22;20809;49.594;8.734;2022-08-21T20:42:23;18.70;94.30
34574;DHT22;20809;49.594;8.734;2022-08-21T20:45:29;18.60;94.50